Pueblo Of Acoma, NM (87034)

14:52 MDT le 27 Mars 2015 (GMT -0600)
Old Laguna Sub | | Change Station
CLOSE
Current Station
Stations météorologiques personnelles
Location: New Mexico, NM
Altitude: 5820 ft
Stations météo à proximité

Alt. 5820 ft 35.05 °N, 107.37 °W | Updated 4 minutes ago

Ciel dégagé
Ciel dégagé
72.6 ° F
Paraît 73 ° F
N
2.4
Vent Variable Vent de NO
Gusts 14.8 mph

Aujourd'hui
Haut(e) -- | Bas -- ° F
--% Risque de précip.
Hier
Haut(e) -- | Bas -- ° F
Precip. -- pouce
7:04 AM 7:27 PM
Premier quartier, 55% visible
Pression 30.29 pouce
Visibilité 10.0 Miles terrestres
Nuages Ciel dégagé
indice de chaleur 73 ° F
Point de rosée 15 ° F
Humidité 11%
Précipitations 0.00 pouce
Profondeur de la couche neigeuse Non disponible.
UV 9 sur 12
Pollen 10.60 sur 12
Qualité de l'air Non disponible.
Flu Activity Non disponible.
METAR KGNT 272035Z AUTO 31012G16KT 10SM CLR 21/M10 A3029 RMK AO2 T02141105

More Conditions Fewer Conditions

Pression 30.29 pouce
Visibilité 10.0 Miles terrestres
Nuages Ciel dégagé
indice de chaleur 73 ° F
Point de rosée 15 ° F
Humidité 11%
Précipitations 0.00 pouce
Profondeur de la couche neigeuse Non disponible.
UV 9 sur 12
Pollen 10.60 sur 12
Qualité de l'air Non disponible.
Flu Activity Non disponible.
METAR KGNT 272035Z AUTO 31012G16KT 10SM CLR 21/M10 A3029 RMK AO2 T02141105

More Conditions Fewer Conditions

10-Day Weather Forecast

Almanac

Astronomie

Mar. 27, 2015 Lever Coucher
Temps réel
Crépuscule civil
Crépuscule nautique
Crépuscule astronomique
Lune
Durée de lumière visible
Longueur du jour
Tomorrow will be .
, % of the Moon is Illuminated

Extrêmes aujourd'hui

State Highs State Lows

Community

WunderPhotos

Upload Photos

1,808,822 Photos téléchargées !

WunderBlogs® & News

Nearby

Qualité de l'air

  Qualité de l'air Indice de la qualité de l'air Polluant
Not available.

Épaisseur de neige

Station Depth Altitude

Activité sismique

Ville Distance Mag. Time & Date
Minimum magnitude displayed is 2.5.

Températures des eaux côtières

Lieu Température

Stations

Stations météo à proximité

Emplacement de la station Température Refroidissement éolien Point de rosée Humidité Vent Precip. Alt. Mise à jour Type